Latest Coastal Weather Observations for Learmonth

IDW60701

Issued at 10:33 am WST Saturday 5 December 2020 (issued every 10 minutes, with the page automatically refreshed every 10 minutes)

About coastal observations | Map of coastal stations | Coastal observations for WA | Marine services | Other Formats
Station Details ID: 005007 Name: LEARMONTH AIRPORT Lat: -22.24 Lon: 114.10 Height: 5.0 m
Data from the previous 72 hours. | See also: Recent months at Learmonth
Date/Time
WST
Wind Sea
Height
m
Swell Vis
km
Cloud Weather Temp
°C
Press
MSL
hPa
Rain since
9am
mm
Dir  Spd
kts
Gust
kts
Height
m
Period
s
Dir
05/10:30am SSE 15 20 - - - - 10 Clear - 34.0 1010.3 0.0
05/10:00am SSE 15 20 - - - - 10 - - 32.6 1010.5 0.0
05/09:30am S 16 21 - - - - 10 - - 31.5 1010.8 0.0
05/09:00am S 17 21 - - - - 10 - - 29.9 1011.0 0.0
05/08:30am S 15 21 - - - - 10 - - 28.9 1011.3 0.0
05/08:00am S 17 21 - - - - 10 - - 26.8 1011.4 0.0
05/07:30am S 16 21 - - - - 10 - - 25.2 1011.5 0.0
05/07:00am SSW 15 19 - - - - 10 - - 22.6 1011.2 0.0
05/06:30am SSW 13 17 - - - - 10 - - 21.0 1010.7 0.0
05/06:00am SSW 13 17 - - - - 10 - - 19.7 1010.5 0.0
05/05:30am SW 13 16 - - - - 10 - - 19.3 1010.3 0.0
05/05:00am SSW 13 16 - - - - 10 - - 19.6 1010.0 0.0
05/04:30am SSW 12 15 - - - - 10 - - 19.8 1010.0 0.0
05/04:00am SSW 12 16 - - - - 10 - - 20.1 1009.9 0.0
05/03:30am SW 10 12 - - - - 10 - - 20.3 1009.9 0.0
05/03:00am SSW 10 13 - - - - 10 - - 20.6 1009.9 0.0
05/02:30am SSW 10 12 - - - - 10 - - 21.1 1010.1 0.0
05/02:00am SSW 13 17 - - - - 10 - - 21.7 1010.1 0.0
05/01:30am SSW 13 18 - - - - 10 - - 21.9 1009.9 0.0
05/01:00am SSW 13 17 - - - - 10 - - 22.1 1010.0 0.0
05/12:30am SSW 15 19 - - - - 10 - - 22.4 1010.0 0.0
05/12:00am SSW 13 17 - - - - 10 - - 22.7 1010.3 0.0
 
Date/Time
WST
Wind Sea
Height
m
Swell Vis
km
Cloud Weather Temp
°C
Press
MSL
hPa
Rain since
9am
mm
Dir  Spd
kts
Gust
kts
Height
m
Period
s
Dir
04/11:30pm SW 15 20 - - - - 10 - - 23.1 1010.2 0.0
04/11:00pm SW 15 22 - - - - 10 - - 23.4 1010.3 0.0
04/10:30pm SSW 17 21 - - - - 10 - - 24.1 1010.3 0.0
04/10:00pm SSW 19 23 - - - - 10 - - 24.5 1010.1 0.0
04/09:30pm SW 18 24 - - - - 10 - - 25.3 1009.9 0.0
04/09:00pm SW 17 22 - - - - 10 - - 26.3 1009.5 0.0
04/08:30pm SW 17 23 - - - - 10 - - 27.1 1009.1 0.0
04/08:00pm SW 18 23 - - - - 10 - - 28.3 1008.6 0.0
04/07:52pm SW 17 27 - - - - 10 - - 28.7 1008.4 0.0
04/07:30pm SW 18 24 - - - - 10 - - 29.2 1008.0 0.0
04/07:00pm SW 19 27 - - - - 10 - - 30.3 1007.5 0.0
04/06:30pm SW 19 27 - - - - 10 - - 32.1 1007.3 0.0
04/06:00pm SW 19 25 - - - - 10 - - 33.9 1007.0 0.0
04/05:30pm SW 19 25 - - - - 10 - - 35.1 1006.8 0.0
04/05:00pm SW 20 25 - - - - 10 - - 36.5 1006.5 0.0
04/04:30pm SW 19 24 - - - - 10 - - 37.3 1006.5 0.0
04/04:00pm SW 17 21 - - - - 10 - - 39.1 1006.7 0.0
04/03:41pm SW 15 25 - - - - 10 - - 38.6 1006.8 0.0
04/03:30pm SW 13 18 - - - - 10 - - 39.3 1006.9 0.0
04/03:00pm SSW 6 9 - - - - 10 - - 38.0 1007.4 0.0
04/02:30pm NE 10 15 - - - - 10 - - 35.7 1007.7 0.0
04/02:00pm NNE 9 13 - - - - 10 - - 36.3 1007.8 0.0
04/01:30pm ENE 8 12 - - - - 10 - - 36.0 1007.9 0.0
04/01:00pm ENE 11 13 - - - - 10 - - 35.3 1008.4 0.0
04/12:30pm E 10 13 - - - - 10 - - 35.1 1008.9 0.0
04/12:00pm E 11 14 - - - - 10 - - 34.8 1009.3 0.0
04/11:30am E 10 13 - - - - 10 - - 33.7 1009.9 0.0
04/11:00am E 10 14 - - - - 10 - - 32.9 1010.3 0.0
04/10:30am SE 11 15 - - - - 10 - - 34.1 1010.6 0.0
04/10:00am SSE 9 15 - - - - 10 - - 32.1 1010.6 0.0
04/09:30am SE 11 15 - - - - 10 - - 31.6 1010.8 0.0
04/09:00am SSE 12 16 - - - - 10 - - 29.9 1010.9 0.0
04/08:30am SSE 13 17 - - - - 10 - - 28.5 1011.1 0.0
04/08:00am S 14 20 - - - - 10 - - 26.9 1011.0 0.0
04/07:30am S 12 15 - - - - 10 - - 26.1 1011.2 0.0
04/07:00am S 11 15 - - - - 10 - - 24.0 1011.0 0.0
04/06:30am SSW 14 18 - - - - 10 Partly cloudy - 22.6 1010.5 0.0
04/06:00am SSW 11 14 - - - - 10 Mostly clear - 21.6 1010.5 0.0
04/05:30am SSW 11 14 - - - - 10 - - 21.3 1010.1 0.0
04/05:00am SW 11 14 - - - - 10 - - 21.9 1010.1 0.0
04/04:30am SW 11 13 - - - - 10 - - 22.0 1010.0 0.0
04/04:00am SW 12 15 - - - - 10 - - 21.8 1010.1 0.0
04/03:30am SW 12 15 - - - - 10 - - 21.8 1010.1 0.0
04/03:00am SW 10 13 - - - - 10 - - 21.7 1010.2 0.0
04/02:30am SW 8 11 - - - - 10 - - 21.8 1010.6 0.0
04/02:00am SSW 8 10 - - - - 10 - - 21.9 1011.1 0.0
04/01:30am SSW 11 14 - - - - 10 - - 22.3 1010.6 0.0
04/01:00am SSW 13 16 - - - - 10 - - 22.5 1010.5 0.0
04/12:30am SSW 12 15 - - - - 10 - - 22.7 1010.6 0.0
04/12:00am SSW 12 16 - - - - 10 Cloudy - 23.2 1010.7 0.0
 
Date/Time
WST
Wind Sea
Height
m
Swell Vis
km
Cloud Weather Temp
°C
Press
MSL
hPa
Rain since
9am
mm
Dir  Spd
kts
Gust
kts
Height
m
Period
s
Dir
03/11:30pm SSW 15 22 - - - - 10 - - 23.9 1010.8 0.0
03/11:00pm SSW 14 20 - - - - 10 - - 24.3 1010.6 0.0
03/10:30pm SW 14 18 - - - - 10 - - 24.7 1010.6 0.0
03/10:00pm SW 12 16 - - - - 10 - - 25.1 1010.4 0.0
03/09:30pm SW 14 19 - - - - 10 - - 25.4 1009.9 0.0
03/09:00pm SW 15 20 - - - - 10 Partly cloudy - 25.6 1009.5 0.0
03/08:30pm SW 12 17 - - - - 10 - - 26.3 1009.1 0.0
03/08:00pm SW 17 23 - - - - 10 - - 26.9 1008.6 0.0
03/07:30pm SW 16 21 - - - - 10 - - 28.4 1008.4 0.0
03/07:00pm SW 16 21 - - - - 10 - - 30.4 1007.9 0.0
03/06:30pm SW 17 22 - - - - 10 - - 33.1 1007.3 0.0
03/06:00pm WSW 15 21 - - - - 10 - - 35.1 1006.9 0.0
03/05:30pm WSW 16 19 - - - - 10 - - 36.0 1006.6 0.0
03/05:00pm WSW 17 21 - - - - 10 - - 37.0 1006.4 0.0
03/04:30pm W 16 21 - - - - 10 - - 38.3 1006.3 0.0
03/04:00pm W 15 19 - - - - 10 - - 38.8 1006.4 0.0
03/03:30pm W 15 19 - - - - 10 - - 39.3 1006.5 0.0
03/03:13pm W 15 19 - - - - 10 - - 40.3 1006.6 0.0
03/03:00pm NNW 3 7 - - - - 10 - - 41.1 1006.7 0.0
03/02:30pm N 10 12 - - - - 10 - - 39.2 1007.2 0.0
03/02:00pm NNE 11 13 - - - - 10 - - 37.6 1007.6 0.0
03/01:30pm NNE 13 16 - - - - 10 - - 37.0 1008.0 0.0
03/01:00pm NE 8 11 - - - - 10 - - 38.2 1008.3 0.0
03/12:30pm ENE 7 10 - - - - 10 - - 37.9 1008.5 0.0
03/12:00pm E 7 9 - - - - 10 Mostly clear - 35.9 1008.9 0.0
03/11:30am E 7 10 - - - - 10 - - 34.9 1009.3 0.0
03/11:00am E 7 11 - - - - 10 - - 35.0 1009.6 0.0
03/10:30am SE 5 9 - - - - 10 - - 34.0 1009.7 0.0
03/10:00am ESE 7 10 - - - - 10 - - 33.2 1010.1 0.0
03/09:30am SSE 6 10 - - - - 10 - - 32.8 1010.1 0.0
03/09:00am S 9 13 - - - - 10 - - 31.1 1009.9 0.0
03/08:30am SSW 10 13 - - - - 10 - - 29.5 1009.9 0.0
03/08:00am SSW 12 16 - - - - 10 - - 27.5 1009.9 0.0
03/07:30am SSW 13 17 - - - - 10 - - 25.7 1009.7 0.0
03/07:00am SSW 14 18 - - - - 10 - - 23.9 1009.6 0.0
03/06:30am SW 13 18 - - - - 10 - - 22.3 1009.3 0.0
03/06:00am SSW 10 14 - - - - 10 - - 21.2 1009.3 0.0
03/05:30am SSW 11 15 - - - - 10 - - 21.0 1008.9 0.0
03/05:00am SSW 13 16 - - - - 10 - - 21.6 1008.6 0.0
03/04:30am SSW 14 18 - - - - 10 - - 22.1 1008.2 0.0
03/04:00am SSW 11 14 - - - - 10 - - 22.3 1008.4 0.0
03/03:30am SW 12 16 - - - - 10 - - 22.8 1008.3 0.0
03/03:00am SW 12 15 - - - - 10 - - 22.9 1008.6 0.0
03/02:30am SW 12 15 - - - - 10 - - 23.3 1008.5 0.0
03/02:00am SW 10 12 - - - - 10 - - 23.1 1008.8 0.0
03/01:30am SW 11 14 - - - - 10 - - 23.1 1009.4 0.0
03/01:00am SW 10 12 - - - - 10 - - 23.1 1009.9 0.0
03/12:30am SW 9 11 - - - - 10 - - 22.9 1010.5 0.0
03/12:00am S 6 8 - - - - 10 - - 23.1 1010.9 0.0
 
Date/Time
WST
Wind Sea
Height
m
Swell Vis
km
Cloud Weather Temp
°C
Press
MSL
hPa
Rain since
9am
mm
Dir  Spd
kts
Gust
kts
Height
m
Period
s
Dir
02/11:30pm SW 11 15 - - - - 10 - - 24.1 1010.3 0.0
02/11:00pm SW 8 11 - - - - 10 - - 24.4 1010.3 0.0
02/10:30pm SSW 11 15 - - - - 10 - - 25.1 1010.1 0.0
02/10:00pm SSW 14 18 - - - - 10 - - 25.6 1009.7 0.0
02/09:30pm SW 15 19 - - - - 10 - - 26.1 1009.3 0.0
02/09:00pm SSW 14 19 - - - - 10 - - 26.8 1009.2 0.0
02/08:30pm SW 15 22 - - - - 10 - - 27.9 1008.7 0.0
02/08:00pm SW 13 17 - - - - 10 - - 29.1 1008.5 0.0
02/07:30pm SW 14 21 - - - - 10 - - 29.7 1008.1 0.0
02/07:00pm SW 15 19 - - - - 10 - - 30.6 1007.9 0.0
02/06:30pm SW 17 21 - - - - 10 - - 32.5 1007.5 0.0
02/06:00pm SW 17 21 - - - - 10 - - 35.0 1007.0 0.0
02/05:30pm SW 16 22 - - - - 10 - - 37.3 1006.8 0.0
02/05:00pm SSW 15 19 - - - - 10 - - 39.5 1006.6 0.0
02/04:30pm WSW 13 19 - - - - 10 - - 41.1 1006.3 0.0
02/04:00pm N 9 11 - - - - 10 - - 39.8 1006.5 0.0
02/03:30pm NNE 8 10 - - - - 10 - - 40.6 1006.6 0.0
02/03:00pm NNE 8 10 - - - - 10 - - 40.6 1006.7 0.0
02/02:30pm ENE 9 12 - - - - 10 - - 40.2 1007.0 0.0
02/02:00pm ENE 10 13 - - - - 10 - - 40.0 1007.2 0.0
02/01:30pm ENE 10 14 - - - - 10 - - 40.2 1007.5 0.0
02/01:00pm SE 4 13 - - - - 10 - - 40.2 1007.9 0.0
02/12:30pm NE 7 10 - - - - 10 - - 39.3 1008.4 0.0
02/12:00pm E 7 10 - - - - 10 - - 38.6 1008.7 0.0
02/11:30am ESE 9 12 - - - - 10 - - 37.4 1008.9 0.0
02/11:00am SE 8 13 - - - - 10 - - 36.8 1009.3 0.0

Other formats

Comma delimited format used in spreadsheet applications
http://www.bom.gov.au/fwo/IDW60701/IDW60701.94302.axf

JavaScript Object Notation format (JSON) in row-major order
http://www.bom.gov.au/fwo/IDW60701/IDW60701.94302.json

Data quality

Most of these data are generated automatically and are frequently updated. Quality checks on data are not normally performed. It is possible for incorrect values to appear. Refer to information at About Latest Weather Observations and please check the disclaimer before using these data.